Terminal Aerodrome Forecast
Issued by NWS

Home | Current Version | Previous Version | Text Only | Print | Product List | Glossary On
Versions: 1 2 3 4 5 6 7 8 9
112
FTUS42 KTBW 240538
TAFLAL
TAF
KLAL 240538Z 2406/2506 28004KT P6SM FEW015 BKN040
     FM240900 27003KT 6SM BR SCT007 BKN015 OVC025
     FM241200 28006KT P6SM BKN025 OVC050
     FM241500 28009KT P6SM VCSH SCT015 BKN025
     FM241800 27016G26KT P6SM SCT025 BKN050
     FM250000 28010KT P6SM SCT025 SCT050
     FM250200 29006KT P6SM SKC
      AMD NOT SKED TIL 241100=

USA.gov is the U.S. government's official web portal to all federal, state and local government web resources and services.